createdAt,value
2023-03-21T00:01:14.812Z,15.65
2023-03-21T00:03:44.429Z,14.70
2023-03-21T00:06:13.796Z,19.42
2023-03-21T00:08:42.327Z,15.57
2023-03-21T00:11:12.114Z,16.52
2023-03-21T00:13:42.480Z,15.98
2023-03-21T00:16:26.369Z,16.13
2023-03-21T00:19:06.558Z,19.88
2023-03-21T00:21:49.030Z,14.00
2023-03-21T00:24:24.003Z,12.05
2023-03-21T00:26:53.707Z,15.73
2023-03-21T00:29:22.385Z,19.13
2023-03-21T00:31:50.790Z,16.55
2023-03-21T00:34:31.696Z,13.45
2023-03-21T00:37:09.407Z,18.77
2023-03-21T00:39:37.924Z,11.63
2023-03-21T00:42:06.621Z,15.73
2023-03-21T00:44:37.049Z,14.30
2023-03-21T00:47:07.760Z,21.90
2023-03-21T00:49:38.697Z,15.40
2023-03-21T00:52:17.132Z,15.45
2023-03-21T00:54:48.875Z,12.15
2023-03-21T00:57:20.165Z,20.27
2023-03-21T00:59:48.712Z,16.83
2023-03-21T01:02:23.281Z,23.50
2023-03-21T01:04:53.225Z,16.93
2023-03-21T01:07:21.901Z,19.70
2023-03-21T01:09:50.997Z,17.25
2023-03-21T01:12:19.423Z,14.32
2023-03-21T01:14:47.865Z,17.08
2023-03-21T01:17:16.447Z,21.50
2023-03-21T01:19:51.968Z,16.60
2023-03-21T01:22:22.558Z,22.80
2023-03-21T01:24:55.420Z,18.70
2023-03-21T01:27:28.903Z,21.17
2023-03-21T01:29:57.803Z,17.70
2023-03-21T01:32:27.099Z,23.17
2023-03-21T01:34:55.709Z,22.85
2023-03-21T01:37:26.710Z,19.13
2023-03-21T01:39:55.326Z,18.50
2023-03-21T01:42:23.749Z,19.00
2023-03-21T01:44:57.877Z,17.80
2023-03-21T01:47:26.385Z,18.13
2023-03-21T01:49:56.775Z,17.27
2023-03-21T01:52:37.035Z,16.90
2023-03-21T01:55:07.384Z,15.70
2023-03-21T01:57:49.278Z,17.48
2023-03-21T02:00:26.190Z,17.30
2023-03-21T02:03:11.174Z,16.85
2023-03-21T02:05:43.000Z,13.43
2023-03-21T02:08:13.307Z,22.30
2023-03-21T02:10:42.627Z,15.93
2023-03-21T02:13:11.484Z,21.23
2023-03-21T02:15:40.860Z,18.50
2023-03-21T02:18:12.005Z,15.35
2023-03-21T02:21:11.492Z,15.43
2023-03-21T02:24:07.447Z,19.88
2023-03-21T02:27:01.314Z,15.35
2023-03-21T02:29:53.697Z,20.15
2023-03-21T02:32:37.075Z,19.67
2023-03-21T02:35:16.113Z,19.77
2023-03-21T02:37:58.294Z,15.52
2023-03-21T02:40:33.122Z,22.17
2023-03-21T02:43:11.588Z,17.35
2023-03-21T02:45:48.352Z,13.90
2023-03-21T02:48:27.809Z,19.10
2023-03-21T02:50:59.806Z,19.60
2023-03-21T02:53:31.870Z,14.02
2023-03-21T02:56:01.037Z,17.58
2023-03-21T02:58:30.211Z,19.33
2023-03-21T03:00:58.716Z,15.88
2023-03-21T03:03:34.341Z,16.58
2023-03-21T03:06:04.505Z,17.75
2023-03-21T03:08:47.345Z,20.02
2023-03-21T03:11:25.908Z,17.63
2023-03-21T03:14:15.613Z,22.08
2023-03-21T03:16:54.356Z,14.52
2023-03-21T03:19:27.574Z,19.25
2023-03-21T03:22:00.419Z,21.10
2023-03-21T03:24:33.611Z,19.67
2023-03-21T03:27:04.552Z,20.23
2023-03-21T03:29:35.217Z,16.17
2023-03-21T03:32:05.969Z,14.52
2023-03-21T03:34:39.566Z,14.15
2023-03-21T03:37:09.950Z,16.15
2023-03-21T03:39:43.139Z,17.45
2023-03-21T03:42:27.221Z,20.17
2023-03-21T03:44:57.006Z,17.00
2023-03-21T03:47:33.754Z,19.15
2023-03-21T03:50:08.965Z,18.75
2023-03-21T03:52:50.111Z,14.57
2023-03-21T03:55:27.221Z,17.58
2023-03-21T03:57:56.981Z,16.00
2023-03-21T04:00:25.748Z,16.88
2023-03-21T04:02:54.305Z,13.70
2023-03-21T04:05:22.713Z,14.27
2023-03-21T04:07:51.305Z,12.95
2023-03-21T04:10:20.203Z,13.57
2023-03-21T04:12:50.154Z,19.05
2023-03-21T04:15:19.159Z,16.50
2023-03-21T04:17:48.124Z,13.88
2023-03-21T04:20:26.705Z,12.65
2023-03-21T04:23:04.327Z,12.05
2023-03-21T04:25:36.890Z,20.77
2023-03-21T04:28:08.616Z,14.55
2023-03-21T04:30:38.574Z,19.02
2023-03-21T04:33:07.144Z,13.75
2023-03-21T04:35:37.651Z,15.43
2023-03-21T04:38:06.563Z,15.07
2023-03-21T04:40:35.357Z,17.45
2023-03-21T04:43:04.028Z,17.88
2023-03-21T04:45:33.910Z,14.13
2023-03-21T04:48:02.502Z,19.67
2023-03-21T04:50:31.929Z,14.40
2023-03-21T04:53:00.546Z,14.30
2023-03-21T04:55:31.745Z,18.60
2023-03-21T04:58:00.284Z,18.20
2023-03-21T05:00:28.846Z,14.07
2023-03-21T05:02:58.739Z,12.25
2023-03-21T05:05:27.234Z,22.85
2023-03-21T05:07:55.688Z,13.13
2023-03-21T05:10:24.129Z,16.05
2023-03-21T05:12:53.039Z,19.90
2023-03-21T05:15:21.616Z,15.07
2023-03-21T05:17:50.174Z,26.88
2023-03-21T05:20:20.300Z,21.65
2023-03-21T05:22:50.202Z,15.40
2023-03-21T05:25:35.643Z,21.90
2023-03-21T05:28:04.485Z,23.08
2023-03-21T05:30:33.474Z,14.63
2023-03-21T05:33:02.461Z,27.13
2023-03-21T05:35:32.651Z,23.00
2023-03-21T05:38:01.123Z,19.73
2023-03-21T05:40:29.573Z,19.27
2023-03-21T05:42:58.788Z,16.83
2023-03-21T05:45:27.433Z,19.45
2023-03-21T05:47:56.054Z,23.35
2023-03-21T05:50:24.598Z,17.73
2023-03-21T05:52:54.400Z,16.15
2023-03-21T05:55:22.820Z,17.73
2023-03-21T05:57:51.325Z,23.77
2023-03-21T06:00:22.009Z,20.20
2023-03-21T06:02:50.611Z,19.42
2023-03-21T06:05:19.210Z,22.77
2023-03-21T06:07:47.644Z,16.35
2023-03-21T06:10:17.549Z,19.65
2023-03-21T06:12:46.067Z,20.13
2023-03-21T06:15:14.635Z,24.88
2023-03-21T06:17:43.084Z,18.13
2023-03-21T06:20:13.012Z,17.58
2023-03-21T06:22:41.421Z,23.00
2023-03-21T06:25:10.742Z,19.75
2023-03-21T06:27:40.745Z,19.17
2023-03-21T06:30:09.648Z,19.38
2023-03-21T06:32:38.159Z,17.50
2023-03-21T06:35:06.984Z,22.13
2023-03-21T06:37:35.448Z,17.48
2023-03-21T06:40:05.513Z,21.73
2023-03-21T06:42:34.072Z,23.60
2023-03-21T06:45:03.949Z,19.77
2023-03-21T06:47:32.412Z,37.65
2023-03-21T06:50:01.024Z,26.50
2023-03-21T06:52:29.508Z,28.42
2023-03-21T06:54:57.979Z,40.08
2023-03-21T06:57:26.485Z,31.27
2023-03-21T06:59:55.344Z,55.20
2023-03-21T07:02:25.163Z,23.83
2023-03-21T07:04:53.672Z,16.73
2023-03-21T07:07:27.389Z,26.23
2023-03-21T07:09:55.944Z,27.50
2023-03-21T07:12:25.274Z,24.63
2023-03-21T07:14:53.827Z,23.58
2023-03-21T07:17:22.361Z,28.13
2023-03-21T07:19:52.182Z,20.23
2023-03-21T07:22:20.620Z,29.00
2023-03-21T07:25:02.319Z,23.15
2023-03-21T07:27:33.535Z,21.80
2023-03-21T07:30:02.237Z,22.08
2023-03-21T07:32:30.708Z,21.98
2023-03-21T07:35:01.877Z,25.70
2023-03-21T07:37:30.787Z,27.48
2023-03-21T07:39:59.204Z,21.65
2023-03-21T07:42:28.945Z,20.90
2023-03-21T07:44:57.344Z,18.77
2023-03-21T07:47:25.922Z,23.02
2023-03-21T07:49:54.427Z,19.65
2023-03-21T07:52:24.227Z,23.17
2023-03-21T07:54:52.706Z,23.80
2023-03-21T07:57:21.188Z,22.70
2023-03-21T07:59:49.580Z,19.67
2023-03-21T08:02:18.814Z,33.33
2023-03-21T08:04:47.609Z,18.67
2023-03-21T08:07:16.451Z,22.08
2023-03-21T08:09:46.419Z,21.67
2023-03-21T08:12:14.982Z,22.52
2023-03-21T08:14:43.730Z,16.42
2023-03-21T08:17:12.373Z,20.38
2023-03-21T08:19:40.945Z,16.58
2023-03-21T08:22:10.945Z,14.60
2023-03-21T08:24:39.550Z,19.08
2023-03-21T08:27:09.379Z,7.82
2023-03-21T08:29:40.590Z,15.85
2023-03-21T08:32:09.109Z,15.02
2023-03-21T08:34:37.751Z,16.90
2023-03-21T08:37:07.159Z,11.45
2023-03-21T08:39:35.618Z,14.88
2023-03-21T08:42:05.587Z,10.95
2023-03-21T08:44:35.507Z,13.60
2023-03-21T08:47:06.941Z,10.90
2023-03-21T08:49:36.646Z,14.68
2023-03-21T08:52:06.249Z,11.90
2023-03-21T08:54:34.773Z,14.40
2023-03-21T08:57:03.555Z,12.48
2023-03-21T08:59:32.339Z,17.17
2023-03-21T09:02:02.270Z,13.27
2023-03-21T09:04:32.152Z,9.45
2023-03-21T09:07:01.662Z,14.68
2023-03-21T09:09:30.070Z,9.95
2023-03-21T09:11:58.812Z,14.68
2023-03-21T09:14:29.191Z,13.95
2023-03-21T09:16:57.764Z,14.35
2023-03-21T09:19:27.959Z,20.90
2023-03-21T09:21:57.659Z,15.93
2023-03-21T09:24:26.446Z,11.77
2023-03-21T09:26:55.023Z,11.35
2023-03-21T09:29:23.524Z,13.65
2023-03-21T09:31:53.570Z,14.40
2023-03-21T09:34:22.539Z,15.45
2023-03-21T09:36:56.629Z,10.23
2023-03-21T09:39:26.386Z,14.93
2023-03-21T09:42:13.172Z,11.82
2023-03-21T09:44:52.807Z,13.27
2023-03-21T09:47:25.348Z,11.50
2023-03-21T09:50:12.812Z,18.55
2023-03-21T09:52:48.285Z,9.65
2023-03-21T09:55:20.069Z,12.77
2023-03-21T09:57:50.095Z,13.00
2023-03-21T10:00:24.945Z,12.63
2023-03-21T10:02:57.254Z,12.05
2023-03-21T10:05:27.062Z,18.17
2023-03-21T10:07:59.391Z,11.68
2023-03-21T10:10:29.693Z,11.85
2023-03-21T10:12:58.676Z,10.85
2023-03-21T10:15:27.835Z,13.90
2023-03-21T10:17:59.265Z,13.45
2023-03-21T10:20:28.320Z,12.95
2023-03-21T10:22:58.738Z,12.85
2023-03-21T10:25:30.111Z,11.63
2023-03-21T10:27:58.609Z,12.05
2023-03-21T10:30:30.021Z,9.90
2023-03-21T10:32:59.735Z,13.70
2023-03-21T10:35:28.585Z,12.98
2023-03-21T10:37:58.356Z,12.05
2023-03-21T10:40:26.761Z,10.70
2023-03-21T10:42:56.747Z,9.23
2023-03-21T10:45:25.798Z,13.35
2023-03-21T10:47:55.705Z,11.05
2023-03-21T10:50:28.164Z,10.75
2023-03-21T10:53:01.616Z,17.13
2023-03-21T10:55:32.411Z,12.73
2023-03-21T10:58:02.353Z,12.68
2023-03-21T11:00:32.173Z,13.13
2023-03-21T11:03:01.636Z,14.70
2023-03-21T11:05:37.124Z,12.55
2023-03-21T11:08:08.528Z,11.98
2023-03-21T11:10:38.330Z,12.45
2023-03-21T11:13:09.352Z,11.68
2023-03-21T11:15:43.469Z,11.27
2023-03-21T11:18:20.743Z,11.90
2023-03-21T11:20:53.212Z,9.73
2023-03-21T11:23:23.695Z,7.05
2023-03-21T11:25:52.680Z,12.02
2023-03-21T11:28:22.961Z,9.38
2023-03-21T11:30:52.693Z,13.23
2023-03-21T11:33:21.698Z,12.75
2023-03-21T11:36:00.133Z,15.13
2023-03-21T11:38:32.252Z,8.25
2023-03-21T11:41:01.764Z,10.48
2023-03-21T11:43:31.948Z,9.55
2023-03-21T11:46:02.315Z,8.93
2023-03-21T11:48:30.829Z,12.80
2023-03-21T11:51:02.679Z,12.10
2023-03-21T11:53:38.455Z,7.72
2023-03-21T11:56:14.384Z,8.93
2023-03-21T11:58:49.791Z,10.93
2023-03-21T12:03:59.267Z,14.32
2023-03-21T12:06:32.124Z,10.45
2023-03-21T12:09:19.343Z,8.63
2023-03-21T12:11:54.338Z,11.13
2023-03-21T12:14:29.173Z,10.60
2023-03-21T12:17:04.725Z,18.13
2023-03-21T12:19:49.116Z,10.00
2023-03-21T12:22:21.922Z,11.13
2023-03-21T12:24:52.291Z,8.55
2023-03-21T12:27:26.536Z,9.48
2023-03-21T12:30:01.240Z,10.98
2023-03-21T12:32:41.141Z,11.23
2023-03-21T12:35:26.604Z,15.57
2023-03-21T12:37:59.581Z,11.65
2023-03-21T12:40:36.252Z,10.60
2023-03-21T12:43:22.979Z,9.57
2023-03-21T12:45:54.191Z,7.78
2023-03-21T12:48:27.811Z,10.25
2023-03-21T12:50:57.516Z,9.52
2023-03-21T12:53:35.746Z,9.65
2023-03-21T12:56:07.263Z,8.40
2023-03-21T12:58:41.061Z,7.90
2023-03-21T13:03:44.076Z,9.02
2023-03-21T13:06:13.631Z,9.95
2023-03-21T13:08:44.781Z,7.82
2023-03-21T13:11:15.954Z,8.82
2023-03-21T13:13:46.163Z,8.52
2023-03-21T13:16:16.993Z,12.88
2023-03-21T13:18:51.330Z,7.50
2023-03-21T13:21:24.466Z,6.97
2023-03-21T13:24:03.271Z,5.30
2023-03-21T13:26:36.442Z,9.02
2023-03-21T13:29:14.058Z,11.48
2023-03-21T13:31:52.097Z,6.47
2023-03-21T13:34:24.079Z,8.35
2023-03-21T13:36:53.788Z,7.10
2023-03-21T13:39:24.016Z,14.25
2023-03-21T13:41:54.636Z,9.95
2023-03-21T13:44:26.032Z,9.65
2023-03-21T13:47:01.682Z,10.13
2023-03-21T13:49:33.002Z,5.07
2023-03-21T13:52:02.354Z,9.25
2023-03-21T13:54:34.456Z,7.40
2023-03-21T13:57:06.091Z,7.15
2023-03-21T13:59:39.055Z,9.13
2023-03-21T14:02:21.812Z,10.23
2023-03-21T14:05:04.785Z,10.77
2023-03-21T14:07:35.460Z,10.00
2023-03-21T14:10:06.463Z,8.85
2023-03-21T14:12:38.857Z,8.30
2023-03-21T14:15:16.207Z,9.95
2023-03-21T14:17:51.902Z,8.00
2023-03-21T14:20:24.191Z,8.02
2023-03-21T14:22:52.751Z,9.55
2023-03-21T14:25:24.377Z,6.78
2023-03-21T14:27:55.115Z,9.10
2023-03-21T14:30:24.979Z,9.65
2023-03-21T14:32:55.690Z,5.05
2023-03-21T14:35:25.836Z,8.93
2023-03-21T14:37:54.302Z,6.82
2023-03-21T14:40:24.410Z,11.25
2023-03-21T14:42:53.561Z,6.55
2023-03-21T14:45:23.561Z,5.63
2023-03-21T14:47:59.392Z,7.85
2023-03-21T14:50:33.679Z,9.15
2023-03-21T14:53:02.384Z,9.25
2023-03-21T14:55:31.950Z,5.25
2023-03-21T14:58:00.522Z,6.32
2023-03-21T15:00:30.286Z,8.35
2023-03-21T15:03:00.459Z,11.05
2023-03-21T15:05:31.614Z,9.10
2023-03-21T15:08:03.032Z,12.20
2023-03-21T15:10:32.771Z,7.10
2023-03-21T15:13:02.191Z,7.13
2023-03-21T15:15:31.535Z,8.13
2023-03-21T15:18:04.882Z,13.57
2023-03-21T15:20:34.543Z,11.55
2023-03-21T15:23:05.972Z,7.53
2023-03-21T15:25:36.123Z,11.50
2023-03-21T15:28:06.506Z,10.05
2023-03-21T15:30:36.121Z,9.88
2023-03-21T15:33:10.640Z,6.10
2023-03-21T15:35:40.695Z,6.45
2023-03-21T15:38:22.874Z,5.18
2023-03-21T15:40:51.470Z,5.95
2023-03-21T15:43:20.846Z,3.45
2023-03-21T15:45:49.881Z,7.15
2023-03-21T15:48:18.661Z,2.90
2023-03-21T15:50:51.661Z,5.63
2023-03-21T15:53:22.218Z,4.50
2023-03-21T15:55:52.211Z,5.60
2023-03-21T15:58:22.462Z,5.45
2023-03-21T16:00:54.795Z,5.80
2023-03-21T16:03:25.308Z,6.93
2023-03-21T16:06:04.246Z,7.45
2023-03-21T16:08:36.421Z,5.45
2023-03-21T16:11:16.232Z,5.28
2023-03-21T16:13:44.671Z,4.55
2023-03-21T16:16:17.783Z,6.10
2023-03-21T16:18:46.404Z,8.98
2023-03-21T16:21:15.550Z,6.07
2023-03-21T16:23:45.548Z,7.07
2023-03-21T16:26:14.990Z,7.45
2023-03-21T16:28:43.608Z,11.32
2023-03-21T16:31:15.124Z,7.95
2023-03-21T16:33:44.307Z,9.68
2023-03-21T16:36:15.612Z,5.18
2023-03-21T16:38:45.700Z,7.97
2023-03-21T16:41:14.564Z,8.57
2023-03-21T16:43:44.023Z,6.65
2023-03-21T16:46:14.396Z,6.05
2023-03-21T16:48:43.287Z,7.43
2023-03-21T16:51:14.904Z,7.03
2023-03-21T16:53:44.717Z,6.22
2023-03-21T16:56:16.928Z,6.40
2023-03-21T16:58:45.441Z,6.32
2023-03-21T17:01:15.764Z,7.38
2023-03-21T17:03:44.388Z,8.88
2023-03-21T17:06:15.874Z,7.75
2023-03-21T17:08:45.924Z,9.70
2023-03-21T17:11:16.488Z,9.43
2023-03-21T17:13:45.160Z,9.80
2023-03-21T17:16:13.693Z,9.80
2023-03-21T17:18:43.458Z,7.30
2023-03-21T17:21:14.176Z,5.88
2023-03-21T17:23:42.817Z,9.20
2023-03-21T17:26:13.969Z,15.00
2023-03-21T17:28:43.023Z,9.88
2023-03-21T17:31:14.508Z,11.55
2023-03-21T17:33:43.358Z,18.10
2023-03-21T17:36:14.676Z,14.93
2023-03-21T17:38:43.122Z,14.07
2023-03-21T17:41:14.576Z,15.88
2023-03-21T17:43:43.092Z,15.55
2023-03-21T17:46:13.588Z,16.75
2023-03-21T17:48:42.125Z,16.88
2023-03-21T17:51:12.983Z,24.92
2023-03-21T17:53:41.848Z,24.17
2023-03-21T17:56:12.680Z,23.58
2023-03-21T17:58:42.574Z,20.50
2023-03-21T18:01:11.689Z,25.30
2023-03-21T18:03:40.243Z,24.65
2023-03-21T18:06:09.439Z,25.70
2023-03-21T18:08:37.877Z,29.65
2023-03-21T18:11:07.127Z,29.63
2023-03-21T18:13:35.880Z,21.33
2023-03-21T18:16:06.021Z,21.15
2023-03-21T18:18:35.099Z,18.52
2023-03-21T18:21:03.929Z,17.10
2023-03-21T18:23:33.179Z,21.63
2023-03-21T18:26:01.584Z,18.92
2023-03-21T18:28:31.026Z,15.25
2023-03-21T18:31:19.412Z,17.45
2023-03-21T18:33:50.358Z,20.25
2023-03-21T18:36:24.815Z,19.85
2023-03-21T18:38:56.828Z,19.67
2023-03-21T18:41:27.478Z,17.73
2023-03-21T18:44:01.207Z,16.75
2023-03-21T18:46:34.023Z,18.33
2023-03-21T18:49:39.002Z,19.13
2023-03-21T18:51:52.861Z,14.20
2023-03-21T18:54:23.964Z,16.70
2023-03-21T18:59:41.198Z,20.23
2023-03-21T19:02:09.852Z,11.43
2023-03-21T19:04:39.975Z,12.70
2023-03-21T19:07:09.011Z,10.52
2023-03-21T19:12:26.649Z,10.95
2023-03-21T19:14:55.079Z,10.82
2023-03-21T19:20:15.426Z,8.35
2023-03-21T19:22:44.793Z,7.90
2023-03-21T19:25:14.488Z,8.80
2023-03-21T19:27:43.190Z,9.63
2023-03-21T19:30:15.657Z,14.88
2023-03-21T19:32:44.824Z,12.35
2023-03-21T19:35:15.021Z,9.77
2023-03-21T19:37:43.457Z,11.07
2023-03-21T19:40:12.347Z,9.45
2023-03-21T19:42:41.930Z,12.52
2023-03-21T19:45:11.438Z,10.85
2023-03-21T19:47:40.007Z,8.70
2023-03-21T19:52:59.242Z,13.85
2023-03-21T19:55:27.764Z,10.85
2023-03-21T19:57:56.272Z,8.95
2023-03-21T20:00:24.854Z,8.80
2023-03-21T20:02:53.499Z,7.65
2023-03-21T20:05:22.433Z,13.05
2023-03-21T20:07:51.026Z,9.00
2023-03-21T20:10:21.215Z,13.00
2023-03-21T20:12:49.617Z,9.82
2023-03-21T20:15:21.466Z,11.02
2023-03-21T20:17:50.793Z,9.55
2023-03-21T20:20:20.461Z,9.80
2023-03-21T20:23:07.997Z,11.68
2023-03-21T20:25:40.376Z,10.70
2023-03-21T20:28:24.358Z,13.10
2023-03-21T20:30:56.773Z,12.23
2023-03-21T20:33:25.489Z,11.52
2023-03-21T20:36:37.709Z,11.65
2023-03-21T20:38:47.929Z,13.90
2023-03-21T20:41:17.999Z,9.95
2023-03-21T20:44:28.486Z,12.43
2023-03-21T20:46:37.544Z,12.10
2023-03-21T20:49:07.465Z,9.60
2023-03-21T20:54:24.872Z,13.43
2023-03-21T20:56:55.324Z,11.75
2023-03-21T20:59:27.519Z,7.97
2023-03-21T21:01:57.407Z,11.02
2023-03-21T21:04:46.916Z,8.95
2023-03-21T21:07:17.329Z,11.57
2023-03-21T21:09:46.283Z,10.82
2023-03-21T21:12:19.188Z,9.75
2023-03-21T21:14:48.302Z,11.15
2023-03-21T21:20:16.271Z,15.60
2023-03-21T21:22:52.317Z,7.35
2023-03-21T21:25:26.827Z,9.23
2023-03-21T21:27:56.686Z,11.90
2023-03-21T21:30:25.289Z,11.18
2023-03-21T21:32:54.035Z,12.52
2023-03-21T21:35:22.666Z,11.23
2023-03-21T21:37:52.146Z,10.10
2023-03-21T21:40:23.087Z,11.77
2023-03-21T21:42:51.475Z,13.75
2023-03-21T21:45:21.519Z,15.45
2023-03-21T21:47:50.140Z,10.50
2023-03-21T21:50:20.342Z,14.32
2023-03-21T21:52:54.428Z,9.45
2023-03-21T21:55:23.409Z,12.00
2023-03-21T21:57:53.071Z,10.80
2023-03-21T22:00:24.835Z,10.93
2023-03-21T22:02:53.310Z,13.55
2023-03-21T22:05:22.310Z,8.27
2023-03-21T22:07:51.960Z,13.27
2023-03-21T22:10:21.201Z,11.05
2023-03-21T22:12:50.057Z,15.00
2023-03-21T22:15:19.043Z,10.10
2023-03-21T22:17:48.818Z,13.13
2023-03-21T22:20:18.850Z,13.57
2023-03-21T22:22:47.596Z,12.27
2023-03-21T22:25:16.852Z,16.00
2023-03-21T22:27:46.095Z,11.07
2023-03-21T22:30:17.471Z,12.15
2023-03-21T22:32:51.525Z,10.27
2023-03-21T22:35:26.457Z,11.43
2023-03-21T22:37:54.964Z,11.02
2023-03-21T22:40:24.316Z,10.60
2023-03-21T22:42:52.856Z,10.80
2023-03-21T22:45:21.483Z,12.35
2023-03-21T22:47:50.319Z,17.38
2023-03-21T22:50:18.902Z,11.45
2023-03-21T22:52:48.661Z,13.57
2023-03-21T22:55:17.258Z,12.25
2023-03-21T22:57:45.748Z,13.25
2023-03-21T23:00:14.803Z,13.57
2023-03-21T23:02:43.400Z,9.60
2023-03-21T23:05:12.292Z,12.05
2023-03-21T23:07:41.174Z,11.05
2023-03-21T23:10:12.296Z,14.95
2023-03-21T23:12:40.946Z,14.00
2023-03-21T23:15:09.994Z,12.60
2023-03-21T23:17:38.520Z,13.13
2023-03-21T23:20:08.803Z,12.18
2023-03-21T23:22:37.487Z,10.32
2023-03-21T23:25:06.584Z,16.40
2023-03-21T23:27:36.641Z,11.52
2023-03-21T23:30:06.423Z,13.30
2023-03-21T23:32:35.407Z,15.15
2023-03-21T23:35:03.855Z,19.08
2023-03-21T23:37:32.308Z,12.98
2023-03-21T23:40:00.938Z,14.07
2023-03-21T23:42:30.949Z,17.98
2023-03-21T23:45:01.201Z,17.83
2023-03-21T23:47:31.143Z,12.52
2023-03-21T23:49:59.771Z,15.95
2023-03-21T23:52:28.326Z,14.40
2023-03-21T23:54:56.792Z,17.52
2023-03-21T23:57:25.303Z,14.60
2023-03-21T23:59:56.350Z,14.55
